createdAt,value
2022-09-21T00:02:26.243Z,2.00
2022-09-21T00:04:59.168Z,1.90
2022-09-21T00:07:31.767Z,2.10
2022-09-21T00:10:05.382Z,2.00
2022-09-21T00:12:39.099Z,2.00
2022-09-21T00:15:13.575Z,2.00
2022-09-21T00:17:48.029Z,2.10
2022-09-21T00:20:22.375Z,2.00
2022-09-21T00:22:55.900Z,2.40
2022-09-21T00:25:28.876Z,2.30
2022-09-21T00:28:02.349Z,2.10
2022-09-21T00:30:35.798Z,2.10
2022-09-21T00:33:08.375Z,2.20
2022-09-21T00:35:41.990Z,2.00
2022-09-21T00:38:14.717Z,2.20
2022-09-21T00:40:47.582Z,2.10
2022-09-21T00:43:20.929Z,2.00
2022-09-21T00:45:59.660Z,2.20
2022-09-21T00:48:33.719Z,2.00
2022-09-21T00:51:10.189Z,1.90
2022-09-21T00:53:43.531Z,1.90
2022-09-21T00:56:17.939Z,1.80
2022-09-21T00:58:54.149Z,2.10
2022-09-21T01:01:27.234Z,2.10
2022-09-21T01:04:01.035Z,2.00
2022-09-21T01:06:36.436Z,1.90
2022-09-21T01:09:09.346Z,2.20
2022-09-21T01:12:14.307Z,2.00
2022-09-21T01:15:00.471Z,2.00
2022-09-21T01:18:01.672Z,2.20
2022-09-21T01:21:13.447Z,2.00
2022-09-21T01:24:17.833Z,2.10
2022-09-21T01:27:21.113Z,2.30
2022-09-21T01:30:00.219Z,2.40
2022-09-21T01:32:40.787Z,2.40
2022-09-21T01:35:26.313Z,2.40
2022-09-21T01:38:06.063Z,2.60
2022-09-21T01:40:49.348Z,2.60
2022-09-21T01:43:39.167Z,2.70
2022-09-21T01:46:22.326Z,2.70
2022-09-21T01:49:05.497Z,2.60
2022-09-21T01:51:41.698Z,2.50
2022-09-21T01:54:26.031Z,2.60
2022-09-21T01:57:08.363Z,2.70
2022-09-21T02:00:00.323Z,2.40
2022-09-21T02:02:59.884Z,2.50
2022-09-21T02:05:33.190Z,2.40
2022-09-21T02:08:09.213Z,2.50
2022-09-21T02:11:01.846Z,2.30
2022-09-21T02:13:42.282Z,2.20
2022-09-21T02:16:32.722Z,2.10
2022-09-21T02:19:22.911Z,2.10
2022-09-21T02:22:10.661Z,1.90
2022-09-21T02:24:54.252Z,2.10
2022-09-21T02:27:33.858Z,2.00
2022-09-21T02:30:30.990Z,2.40
2022-09-21T02:33:06.890Z,2.10
2022-09-21T02:35:50.765Z,2.00
2022-09-21T02:38:33.320Z,2.00
2022-09-21T02:44:00.166Z,1.90
2022-09-21T02:46:49.290Z,2.00
2022-09-21T02:49:33.893Z,1.70
2022-09-21T02:52:16.756Z,1.90
2022-09-21T02:54:54.182Z,2.10
2022-09-21T02:57:28.087Z,1.70
2022-09-21T03:00:01.461Z,2.00
2022-09-21T03:02:43.271Z,1.90
2022-09-21T03:05:18.661Z,2.10
2022-09-21T03:07:51.641Z,2.30
2022-09-21T03:10:24.800Z,2.30
2022-09-21T03:13:03.010Z,2.40
2022-09-21T03:15:36.320Z,2.40
2022-09-21T03:18:11.891Z,2.20
2022-09-21T03:20:47.951Z,2.40
2022-09-21T03:23:20.776Z,2.30
2022-09-21T03:25:55.274Z,2.20
2022-09-21T03:28:28.217Z,2.10
2022-09-21T03:31:01.740Z,2.10
2022-09-21T03:33:34.891Z,2.00
2022-09-21T03:36:08.689Z,2.00
2022-09-21T03:38:42.182Z,2.00
2022-09-21T03:41:16.079Z,2.20
2022-09-21T03:43:48.945Z,2.00
2022-09-21T03:46:21.608Z,2.30
2022-09-21T03:48:54.268Z,2.20
2022-09-21T03:51:26.728Z,2.00
2022-09-21T03:53:59.397Z,2.20
2022-09-21T03:56:32.324Z,2.00
2022-09-21T03:59:05.309Z,2.00
2022-09-21T04:01:39.094Z,2.10
2022-09-21T04:04:12.337Z,2.10
2022-09-21T04:06:46.699Z,2.50
2022-09-21T04:09:19.558Z,2.30
2022-09-21T04:11:54.275Z,2.30
2022-09-21T04:14:27.715Z,2.30
2022-09-21T04:17:00.748Z,2.40
2022-09-21T04:19:34.148Z,2.20
2022-09-21T04:22:07.465Z,2.50
2022-09-21T04:24:43.497Z,2.80
2022-09-21T04:27:16.711Z,2.60
2022-09-21T04:29:49.762Z,2.60
2022-09-21T04:32:22.871Z,3.20
2022-09-21T04:34:56.319Z,3.00
2022-09-21T04:37:29.575Z,3.50
2022-09-21T04:40:03.076Z,3.30
2022-09-21T04:42:36.817Z,3.90
2022-09-21T04:45:10.455Z,3.10
2022-09-21T04:47:43.685Z,3.00
2022-09-21T04:50:17.377Z,2.70
2022-09-21T04:52:53.402Z,3.00
2022-09-21T04:55:26.225Z,2.60
2022-09-21T04:57:59.282Z,4.00
2022-09-21T05:00:32.585Z,4.20
2022-09-21T05:03:05.919Z,4.60
2022-09-21T05:05:39.044Z,4.40
2022-09-21T05:08:12.329Z,5.20
2022-09-21T05:10:45.685Z,4.50
2022-09-21T05:13:20.606Z,3.80
2022-09-21T05:15:53.682Z,3.50
2022-09-21T05:18:27.097Z,4.00
2022-09-21T05:21:01.563Z,3.80
2022-09-21T05:23:34.975Z,3.50
2022-09-21T05:26:08.717Z,3.80
2022-09-21T05:28:44.427Z,3.90
2022-09-21T05:31:20.930Z,4.30
2022-09-21T05:34:06.254Z,3.70
2022-09-21T05:36:55.311Z,3.50
2022-09-21T05:39:29.425Z,4.00
2022-09-21T05:42:05.034Z,4.10
2022-09-21T05:44:38.422Z,3.90
2022-09-21T05:47:15.120Z,4.10
2022-09-21T05:50:33.875Z,4.40
2022-09-21T05:53:27.762Z,3.90
2022-09-21T05:56:22.463Z,3.20
2022-09-21T05:59:15.645Z,3.70
2022-09-21T06:02:12.644Z,3.50
2022-09-21T06:04:45.667Z,3.70
2022-09-21T06:07:18.964Z,3.50
2022-09-21T06:09:52.339Z,3.40
2022-09-21T06:12:25.295Z,3.30
2022-09-21T06:14:59.067Z,3.10
2022-09-21T06:17:32.432Z,2.90
2022-09-21T06:20:08.041Z,3.10
2022-09-21T06:22:41.641Z,3.00
2022-09-21T06:25:14.982Z,2.70
2022-09-21T06:27:48.323Z,2.70
2022-09-21T06:30:22.010Z,2.70
2022-09-21T06:32:55.148Z,2.40
2022-09-21T06:35:28.428Z,2.40
2022-09-21T06:38:09.075Z,2.80
2022-09-21T06:40:42.307Z,2.60
2022-09-21T06:43:15.591Z,2.60
2022-09-21T06:45:56.695Z,2.40
2022-09-21T06:48:30.703Z,2.20
2022-09-21T06:51:05.488Z,2.40
2022-09-21T06:53:38.879Z,2.60
2022-09-21T06:56:14.875Z,2.50
2022-09-21T06:58:48.857Z,2.30
2022-09-21T07:01:23.135Z,2.10
2022-09-21T07:03:56.822Z,2.10
2022-09-21T07:06:30.545Z,3.00
2022-09-21T07:12:00.401Z,2.20
2022-09-21T07:14:34.039Z,1.80
2022-09-21T07:17:07.571Z,1.90
2022-09-21T07:19:41.146Z,1.80
2022-09-21T07:22:14.943Z,2.10
2022-09-21T07:24:48.186Z,1.90
2022-09-21T07:27:21.788Z,1.80
2022-09-21T07:29:55.178Z,2.00
2022-09-21T07:32:28.817Z,1.70
2022-09-21T07:35:02.325Z,1.90
2022-09-21T07:37:35.654Z,1.70
2022-09-21T07:40:09.715Z,1.70
2022-09-21T07:42:45.746Z,1.70
2022-09-21T07:45:18.951Z,1.80
2022-09-21T07:47:54.905Z,1.80
2022-09-21T07:50:28.296Z,2.30
2022-09-21T07:53:02.797Z,4.00
2022-09-21T07:55:35.903Z,3.20
2022-09-21T07:58:28.213Z,3.80
2022-09-21T08:01:01.847Z,2.10
2022-09-21T08:03:35.193Z,1.90
2022-09-21T08:06:09.910Z,1.80
2022-09-21T08:08:43.402Z,1.70
2022-09-21T08:11:18.022Z,1.50
2022-09-21T08:13:51.608Z,1.60
2022-09-21T08:16:25.970Z,1.70
2022-09-21T08:18:59.020Z,1.60
2022-09-21T08:21:33.092Z,1.80
2022-09-21T08:24:07.948Z,2.00
2022-09-21T08:26:41.272Z,1.80
2022-09-21T08:29:15.597Z,2.10
2022-09-21T08:31:51.167Z,2.00
2022-09-21T08:34:24.907Z,2.00
2022-09-21T08:36:58.615Z,1.90
2022-09-21T08:39:31.787Z,1.90
2022-09-21T08:42:11.227Z,1.60
2022-09-21T08:44:51.346Z,1.90
2022-09-21T08:47:44.528Z,1.90
2022-09-21T08:50:34.472Z,2.00
2022-09-21T08:53:22.028Z,1.80
2022-09-21T08:56:05.036Z,2.00
2022-09-21T08:58:41.713Z,2.20
2022-09-21T09:01:22.974Z,1.90
2022-09-21T09:04:27.618Z,1.60
2022-09-21T09:07:22.197Z,1.70
2022-09-21T09:10:17.815Z,1.90
2022-09-21T09:13:02.147Z,1.90
2022-09-21T09:15:56.919Z,1.80
2022-09-21T09:18:43.898Z,1.90
2022-09-21T09:21:32.970Z,1.80
2022-09-21T09:24:22.591Z,1.80
2022-09-21T09:27:21.769Z,1.70
2022-09-21T09:30:15.138Z,2.00
2022-09-21T09:33:09.354Z,1.60
2022-09-21T09:35:51.884Z,1.50
2022-09-21T09:38:30.388Z,1.50
2022-09-21T09:41:33.353Z,1.30
2022-09-21T09:44:23.860Z,1.10
2022-09-21T09:47:22.833Z,1.40
2022-09-21T09:50:09.222Z,1.60
2022-09-21T09:52:45.815Z,1.40
2022-09-21T09:55:26.682Z,1.50
2022-09-21T09:57:59.884Z,1.30
2022-09-21T10:00:32.912Z,1.50
2022-09-21T10:03:21.002Z,1.20
2022-09-21T10:05:55.443Z,1.30
2022-09-21T10:08:48.952Z,1.50
2022-09-21T10:11:22.788Z,1.50
2022-09-21T10:13:56.886Z,1.50
2022-09-21T10:16:32.439Z,1.70
2022-09-21T10:19:08.414Z,1.50
2022-09-21T10:21:47.711Z,1.50
2022-09-21T10:24:28.558Z,1.50
2022-09-21T10:27:36.361Z,1.30
2022-09-21T10:30:29.682Z,1.40
2022-09-21T10:33:03.219Z,1.50
2022-09-21T10:35:53.581Z,1.20
2022-09-21T10:38:29.210Z,1.50
2022-09-21T10:41:02.666Z,1.50
2022-09-21T10:43:43.996Z,1.30
2022-09-21T10:46:17.507Z,1.30
2022-09-21T10:48:50.883Z,1.40
2022-09-21T10:51:34.340Z,1.50
2022-09-21T10:54:12.049Z,1.30
2022-09-21T10:57:04.577Z,1.20
2022-09-21T10:59:39.794Z,1.20
2022-09-21T11:02:35.357Z,1.30
2022-09-21T11:05:43.145Z,1.30
2022-09-21T11:08:45.526Z,1.40
2022-09-21T11:11:53.934Z,1.30
2022-09-21T11:14:45.963Z,1.50
2022-09-21T11:17:22.982Z,1.10
2022-09-21T11:20:17.225Z,1.40
2022-09-21T11:23:18.846Z,1.50
2022-09-21T11:26:04.476Z,1.20
2022-09-21T11:28:43.704Z,1.00
2022-09-21T11:31:53.125Z,1.30
2022-09-21T11:35:02.375Z,1.30
2022-09-21T11:37:52.050Z,1.20
2022-09-21T11:40:33.694Z,1.40
2022-09-21T11:43:33.421Z,1.30
2022-09-21T11:46:34.391Z,1.30
2022-09-21T11:49:28.378Z,1.00
2022-09-21T11:52:35.887Z,1.40
2022-09-21T11:55:28.946Z,1.60
2022-09-21T11:58:19.205Z,1.70
2022-09-21T12:04:45.916Z,1.20
2022-09-21T12:07:43.593Z,1.00
2022-09-21T12:10:40.189Z,1.20
2022-09-21T12:13:40.134Z,1.40
2022-09-21T12:16:24.774Z,1.20
2022-09-21T12:19:12.857Z,1.50
2022-09-21T12:21:51.509Z,1.40
2022-09-21T12:24:44.283Z,1.50
2022-09-21T12:27:49.920Z,1.30
2022-09-21T12:30:30.520Z,1.20
2022-09-21T12:33:12.540Z,0.90
2022-09-21T12:38:46.800Z,0.90
2022-09-21T12:41:32.541Z,1.10
2022-09-21T12:44:22.990Z,1.30
2022-09-21T12:47:11.437Z,1.10
2022-09-21T12:49:52.294Z,1.20
2022-09-21T12:52:29.331Z,1.30
2022-09-21T12:55:29.615Z,1.30
2022-09-21T12:58:20.290Z,1.10
2022-09-21T13:01:06.537Z,1.30
2022-09-21T13:04:13.283Z,1.30
2022-09-21T13:07:01.548Z,1.10
2022-09-21T13:09:35.781Z,1.50
2022-09-21T13:12:22.060Z,1.40
2022-09-21T13:15:04.204Z,1.40
2022-09-21T13:17:37.681Z,1.30
2022-09-21T13:20:24.041Z,1.40
2022-09-21T13:23:05.811Z,1.40
2022-09-21T13:25:39.066Z,1.20
2022-09-21T13:28:25.004Z,1.30
2022-09-21T13:31:23.642Z,1.30
2022-09-21T13:34:31.024Z,1.10
2022-09-21T13:37:18.610Z,1.50
2022-09-21T13:40:05.964Z,1.20
2022-09-21T13:42:38.705Z,1.10
2022-09-21T13:45:19.210Z,1.20
2022-09-21T13:48:01.844Z,1.20
2022-09-21T13:50:47.723Z,1.10
2022-09-21T13:53:33.906Z,1.40
2022-09-21T13:56:23.447Z,1.30
2022-09-21T13:58:59.651Z,1.30
2022-09-21T14:01:47.497Z,1.30
2022-09-21T14:04:37.469Z,1.10
2022-09-21T14:07:12.049Z,1.00
2022-09-21T14:10:04.779Z,1.00
2022-09-21T14:12:45.232Z,1.00
2022-09-21T14:15:20.918Z,1.00
2022-09-21T14:18:23.399Z,0.90
2022-09-21T14:21:19.705Z,1.30
2022-09-21T14:24:12.063Z,1.10
2022-09-21T14:26:45.262Z,1.20
2022-09-21T14:29:32.554Z,1.20
2022-09-21T14:32:13.463Z,1.50
2022-09-21T14:34:50.531Z,1.70
2022-09-21T14:37:43.902Z,2.00
2022-09-21T14:40:29.409Z,1.90
2022-09-21T14:43:13.151Z,1.70
2022-09-21T14:45:59.659Z,1.60
2022-09-21T14:48:50.754Z,1.80
2022-09-21T14:51:47.368Z,1.70
2022-09-21T14:54:36.588Z,1.40
2022-09-21T14:57:38.934Z,1.40
2022-09-21T15:00:51.247Z,1.50
2022-09-21T15:07:05.971Z,1.50
2022-09-21T15:10:37.497Z,1.60
2022-09-21T15:13:45.866Z,1.70
2022-09-21T15:16:43.622Z,1.40
2022-09-21T15:19:26.664Z,1.30
2022-09-21T15:22:24.886Z,1.40
2022-09-21T15:25:06.392Z,1.40
2022-09-21T15:27:39.607Z,1.30
2022-09-21T15:30:33.664Z,1.50
2022-09-21T15:33:06.837Z,1.40
2022-09-21T15:35:40.607Z,1.40
2022-09-21T15:38:33.076Z,1.40
2022-09-21T15:41:11.494Z,1.40
2022-09-21T15:43:47.324Z,1.30
2022-09-21T15:46:20.718Z,1.40
2022-09-21T15:48:56.605Z,1.20
2022-09-21T15:51:40.615Z,1.20
2022-09-21T15:54:28.082Z,1.30
2022-09-21T15:57:07.895Z,1.20
2022-09-21T16:02:25.843Z,1.70
2022-09-21T16:04:58.768Z,1.60
2022-09-21T16:07:30.954Z,1.50
2022-09-21T16:10:05.090Z,1.80
2022-09-21T16:12:49.763Z,1.70
2022-09-21T16:15:34.436Z,1.80
2022-09-21T16:18:08.307Z,2.30
2022-09-21T16:20:46.760Z,2.30
2022-09-21T16:23:27.204Z,2.00
2022-09-21T16:26:03.026Z,1.70
2022-09-21T16:28:43.510Z,1.60
2022-09-21T16:31:31.153Z,1.60
2022-09-21T16:34:26.831Z,1.70
2022-09-21T16:36:59.743Z,1.90
2022-09-21T16:39:32.859Z,1.90
2022-09-21T16:42:09.426Z,2.10
2022-09-21T16:44:45.937Z,2.80
2022-09-21T16:48:05.138Z,2.80
2022-09-21T16:50:48.179Z,2.70
2022-09-21T16:53:24.354Z,2.90
2022-09-21T16:55:57.864Z,2.70
2022-09-21T16:58:32.956Z,3.00
2022-09-21T17:01:07.877Z,2.80
2022-09-21T17:06:52.041Z,3.70
2022-09-21T17:09:46.828Z,4.50
2022-09-21T17:12:21.017Z,4.80
2022-09-21T17:15:05.611Z,4.80
2022-09-21T17:17:39.073Z,4.70
2022-09-21T17:20:38.739Z,5.50
2022-09-21T17:23:12.103Z,4.40
2022-09-21T17:25:46.240Z,3.70
2022-09-21T17:28:26.660Z,2.90
2022-09-21T17:30:59.829Z,2.80
2022-09-21T17:33:35.999Z,3.30
2022-09-21T17:36:09.440Z,4.40
2022-09-21T17:38:43.022Z,3.10
2022-09-21T17:41:44.723Z,4.00
2022-09-21T17:44:18.747Z,3.30
2022-09-21T17:46:59.238Z,2.80
2022-09-21T17:49:32.704Z,2.30
2022-09-21T17:52:24.208Z,2.60
2022-09-21T17:54:57.540Z,2.60
2022-09-21T17:57:59.732Z,2.30
2022-09-21T18:00:55.749Z,2.50
2022-09-21T18:03:31.239Z,2.30
2022-09-21T18:06:04.017Z,2.60
2022-09-21T18:08:38.810Z,2.40
2022-09-21T18:11:27.010Z,2.40
2022-09-21T18:14:34.820Z,2.90
2022-09-21T18:17:35.694Z,2.40
2022-09-21T18:20:25.890Z,2.50
2022-09-21T18:23:27.362Z,2.60
2022-09-21T18:26:02.503Z,2.70
2022-09-21T18:29:00.018Z,2.50
2022-09-21T18:31:53.773Z,2.20
2022-09-21T18:34:56.944Z,2.00
2022-09-21T18:37:40.789Z,1.80
2022-09-21T18:40:24.687Z,2.00
2022-09-21T18:43:25.415Z,1.90
2022-09-21T18:46:15.477Z,1.90
2022-09-21T18:49:15.434Z,1.80
2022-09-21T18:52:18.752Z,1.70
2022-09-21T18:54:53.914Z,1.70
2022-09-21T18:57:33.726Z,1.50
2022-09-21T19:00:07.754Z,1.60
2022-09-21T19:02:53.525Z,1.40
2022-09-21T19:05:43.305Z,1.50
2022-09-21T19:08:36.284Z,1.40
2022-09-21T19:11:19.183Z,1.40
2022-09-21T19:14:09.092Z,1.60
2022-09-21T19:17:08.028Z,1.40
2022-09-21T19:20:06.135Z,1.40
2022-09-21T19:22:46.128Z,1.30
2022-09-21T19:25:49.307Z,1.40
2022-09-21T19:28:44.867Z,1.50
2022-09-21T19:31:19.704Z,1.50
2022-09-21T19:33:53.200Z,1.50
2022-09-21T19:36:26.602Z,1.40
2022-09-21T19:38:59.986Z,1.50
2022-09-21T19:41:50.947Z,1.40
2022-09-21T19:44:52.364Z,1.30
2022-09-21T19:47:47.164Z,1.40
2022-09-21T19:50:27.044Z,1.40
2022-09-21T19:53:39.464Z,1.40
2022-09-21T19:56:41.154Z,1.50
2022-09-21T20:02:11.481Z,1.40
2022-09-21T20:05:10.485Z,1.60
2022-09-21T20:07:57.245Z,1.60
2022-09-21T20:10:39.049Z,1.70
2022-09-21T20:13:37.732Z,1.70
2022-09-21T20:16:27.124Z,1.60
2022-09-21T20:19:21.579Z,1.70
2022-09-21T20:22:14.859Z,1.80
2022-09-21T20:25:11.839Z,2.00
2022-09-21T20:27:49.172Z,2.10
2022-09-21T20:30:24.182Z,2.00
2022-09-21T20:33:00.009Z,2.30
2022-09-21T20:35:34.034Z,2.00
2022-09-21T20:38:07.261Z,2.10
2022-09-21T20:40:42.032Z,2.00
2022-09-21T20:43:16.340Z,2.20
2022-09-21T20:45:50.743Z,2.10
2022-09-21T20:48:23.405Z,2.10
2022-09-21T20:50:58.865Z,2.00
2022-09-21T20:53:31.826Z,2.00
2022-09-21T20:56:04.747Z,1.80
2022-09-21T20:58:37.395Z,2.00
2022-09-21T21:01:11.223Z,1.90
2022-09-21T21:03:44.436Z,2.00
2022-09-21T21:06:19.422Z,1.80
2022-09-21T21:08:53.394Z,1.80
2022-09-21T21:11:28.638Z,1.90
2022-09-21T21:14:02.011Z,1.70
2022-09-21T21:16:35.303Z,1.60
2022-09-21T21:19:08.249Z,1.70
2022-09-21T21:21:41.829Z,1.70
2022-09-21T21:24:35.992Z,1.60
2022-09-21T21:27:15.751Z,1.60
2022-09-21T21:29:50.706Z,1.70
2022-09-21T21:32:25.356Z,1.90
2022-09-21T21:34:58.469Z,1.80
2022-09-21T21:37:31.336Z,1.90
2022-09-21T21:40:04.330Z,1.90
2022-09-21T21:42:37.581Z,1.80
2022-09-21T21:45:14.000Z,1.70
2022-09-21T21:47:48.211Z,1.60
2022-09-21T21:50:22.275Z,1.70
2022-09-21T21:53:00.672Z,1.60
2022-09-21T21:55:33.649Z,1.70
2022-09-21T21:58:06.910Z,1.90
2022-09-21T22:00:40.497Z,1.70
2022-09-21T22:03:41.575Z,1.60
2022-09-21T22:06:18.591Z,1.70
2022-09-21T22:08:52.250Z,1.90
2022-09-21T22:11:25.677Z,1.70
2022-09-21T22:13:59.669Z,1.90
2022-09-21T22:16:34.272Z,2.10
2022-09-21T22:19:09.845Z,1.90
2022-09-21T22:21:53.948Z,1.90
2022-09-21T22:24:27.173Z,1.80
2022-09-21T22:26:59.910Z,1.70
2022-09-21T22:29:36.400Z,1.80
2022-09-21T22:32:09.470Z,1.80
2022-09-21T22:34:42.931Z,2.00
2022-09-21T22:37:15.670Z,1.80
2022-09-21T22:39:48.791Z,1.80
2022-09-21T22:42:22.051Z,2.00
2022-09-21T22:44:55.110Z,2.00
2022-09-21T22:47:28.162Z,2.00
2022-09-21T22:50:00.971Z,2.20
2022-09-21T22:52:33.791Z,2.50
2022-09-21T22:55:06.487Z,3.30
2022-09-21T22:57:38.943Z,3.50
2022-09-21T23:00:12.193Z,4.20
2022-09-21T23:02:45.216Z,3.50
2022-09-21T23:05:17.841Z,3.20
2022-09-21T23:07:58.621Z,2.70
2022-09-21T23:10:31.387Z,2.80
2022-09-21T23:13:05.044Z,2.80
2022-09-21T23:15:37.635Z,2.30
2022-09-21T23:18:10.282Z,2.70
2022-09-21T23:20:43.290Z,2.50
2022-09-21T23:23:15.989Z,2.20
2022-09-21T23:25:49.494Z,2.40
2022-09-21T23:28:22.316Z,2.30
2022-09-21T23:30:57.321Z,2.40
2022-09-21T23:33:43.001Z,2.30
2022-09-21T23:36:19.092Z,2.40
2022-09-21T23:38:52.686Z,2.50
2022-09-21T23:41:33.272Z,2.60
2022-09-21T23:44:06.419Z,2.50
2022-09-21T23:46:41.399Z,2.80
2022-09-21T23:49:14.556Z,2.30
2022-09-21T23:51:47.085Z,2.60
2022-09-21T23:54:20.039Z,2.60
2022-09-21T23:56:52.948Z,2.90
2022-09-21T23:59:25.556Z,2.70
